createdAt,value
2023-05-11T00:01:25.779Z,12.06
2023-05-11T00:06:22.155Z,12.06
2023-05-11T00:11:18.871Z,12.10
2023-05-11T00:16:15.418Z,12.10
2023-05-11T00:21:11.908Z,12.09
2023-05-11T00:26:08.341Z,12.10
2023-05-11T00:31:04.839Z,12.10
2023-05-11T00:36:01.816Z,12.00
2023-05-11T00:40:58.304Z,11.95
2023-05-11T00:45:54.812Z,11.87
2023-05-11T00:50:51.419Z,11.79
2023-05-11T00:55:48.032Z,11.72
2023-05-11T01:00:44.668Z,11.73
2023-05-11T01:05:48.694Z,11.82
2023-05-11T01:10:54.130Z,11.91
2023-05-11T01:15:52.416Z,11.94
2023-05-11T01:20:51.043Z,12.02
2023-05-11T01:25:59.538Z,11.94
2023-05-11T01:31:07.078Z,11.98
2023-05-11T01:36:07.909Z,12.04
2023-05-11T01:41:12.106Z,12.10
2023-05-11T01:46:10.794Z,12.08
2023-05-11T01:51:09.011Z,12.11
2023-05-11T01:56:06.225Z,12.11
2023-05-11T02:01:04.238Z,12.05
2023-05-11T02:06:03.076Z,11.94
2023-05-11T02:11:02.375Z,11.84
2023-05-11T02:16:00.242Z,11.89
2023-05-11T02:20:59.351Z,11.92
2023-05-11T02:25:56.890Z,11.95
2023-05-11T02:30:56.847Z,12.00
2023-05-11T02:35:55.898Z,12.02
2023-05-11T02:40:57.567Z,12.07
2023-05-11T02:45:59.113Z,12.14
2023-05-11T02:50:58.253Z,12.17
2023-05-11T02:55:55.857Z,12.12
2023-05-11T03:00:52.962Z,12.12
2023-05-11T03:05:49.439Z,12.09
2023-05-11T03:10:46.814Z,12.08
2023-05-11T03:15:44.060Z,12.03
2023-05-11T03:20:43.576Z,11.96
2023-05-11T03:25:42.947Z,11.97
2023-05-11T03:30:40.421Z,11.94
2023-05-11T03:35:37.811Z,11.95
2023-05-11T03:40:34.678Z,11.93
2023-05-11T03:45:33.132Z,11.98
2023-05-11T03:50:30.630Z,12.00
2023-05-11T03:55:27.734Z,12.02
2023-05-11T04:00:24.377Z,11.99
2023-05-11T04:05:20.790Z,12.04
2023-05-11T04:10:17.314Z,12.05
2023-05-11T04:15:13.807Z,12.01
2023-05-11T04:20:10.417Z,11.88
2023-05-11T04:25:07.131Z,11.83
2023-05-11T04:30:03.725Z,11.78
2023-05-11T04:35:00.090Z,11.81
2023-05-11T04:39:57.087Z,11.87
2023-05-11T04:44:54.521Z,11.98
2023-05-11T04:49:51.942Z,11.91
2023-05-11T04:54:48.333Z,11.85
2023-05-11T04:59:44.903Z,11.84
2023-05-11T05:04:41.343Z,11.84
2023-05-11T05:09:37.770Z,11.87
2023-05-11T05:14:34.244Z,11.92
2023-05-11T05:19:30.670Z,11.92
2023-05-11T05:24:27.038Z,12.08
2023-05-11T05:29:23.435Z,12.28
2023-05-11T05:34:19.827Z,12.38
2023-05-11T05:39:16.738Z,12.52
2023-05-11T05:44:13.258Z,12.58
2023-05-11T05:49:09.760Z,12.68
2023-05-11T05:54:06.181Z,12.77
2023-05-11T05:59:02.626Z,12.91
2023-05-11T06:03:59.172Z,12.69
2023-05-11T06:08:55.695Z,12.76
2023-05-11T06:13:52.141Z,13.02
2023-05-11T06:18:48.506Z,13.05
2023-05-11T06:23:44.960Z,13.08
2023-05-11T06:28:41.338Z,12.85
2023-05-11T06:33:37.819Z,12.92
2023-05-11T06:38:34.193Z,12.89
2023-05-11T06:43:30.568Z,12.80
2023-05-11T06:48:29.722Z,13.03
2023-05-11T06:53:26.612Z,13.25
2023-05-11T06:58:23.173Z,13.21
2023-05-11T07:03:19.561Z,13.21
2023-05-11T07:08:16.008Z,13.24
2023-05-11T07:13:12.414Z,13.22
2023-05-11T07:18:08.929Z,13.33
2023-05-11T07:23:05.400Z,13.48
2023-05-11T07:28:01.845Z,13.74
2023-05-11T07:32:58.217Z,13.88
2023-05-11T07:37:54.835Z,14.08
2023-05-11T07:42:51.200Z,13.87
2023-05-11T07:47:47.640Z,13.66
2023-05-11T07:52:44.093Z,13.58
2023-05-11T07:57:40.486Z,13.54
2023-05-11T08:02:36.929Z,13.78
2023-05-11T08:07:33.387Z,13.92
2023-05-11T08:12:29.802Z,14.26
2023-05-11T08:17:26.384Z,13.87
2023-05-11T08:22:23.143Z,13.94
2023-05-11T08:27:19.576Z,13.84
2023-05-11T08:32:16.619Z,13.93
2023-05-11T08:37:13.725Z,14.07
2023-05-11T08:42:14.260Z,14.21
2023-05-11T08:47:22.868Z,14.27
2023-05-11T08:52:20.460Z,14.40
2023-05-11T08:57:17.535Z,14.06
2023-05-11T09:02:18.889Z,13.97
2023-05-11T09:07:17.439Z,13.84
2023-05-11T09:12:14.409Z,14.01
2023-05-11T09:17:11.087Z,14.14
2023-05-11T09:22:07.802Z,14.29
2023-05-11T09:27:09.154Z,14.71
2023-05-11T09:32:06.053Z,14.63
2023-05-11T09:37:02.430Z,14.75
2023-05-11T09:42:16.159Z,15.27
2023-05-11T09:47:19.846Z,15.24
2023-05-11T09:52:18.247Z,14.99
2023-05-11T09:57:27.122Z,14.66
2023-05-11T10:02:26.392Z,14.03
2023-05-11T10:07:28.301Z,14.04
2023-05-11T10:12:26.130Z,13.47
2023-05-11T10:17:22.631Z,13.36
2023-05-11T10:22:19.320Z,13.36
2023-05-11T10:27:17.810Z,13.32
2023-05-11T10:32:16.843Z,13.35
2023-05-11T10:37:15.255Z,13.43
2023-05-11T10:42:39.167Z,13.59
2023-05-11T10:47:41.571Z,13.81
2023-05-11T10:52:53.030Z,13.89
2023-05-11T10:58:09.485Z,13.90
2023-05-11T11:03:13.433Z,14.14
2023-05-11T11:08:10.080Z,14.02
2023-05-11T11:13:11.465Z,14.05
2023-05-11T11:18:28.015Z,14.08
2023-05-11T11:23:39.418Z,14.47
2023-05-11T11:28:54.068Z,14.30
2023-05-11T11:33:50.618Z,14.23
2023-05-11T11:39:03.870Z,14.70
2023-05-11T11:44:00.492Z,15.04
2023-05-11T11:49:08.092Z,14.63
2023-05-11T11:54:04.856Z,14.29
2023-05-11T11:59:03.892Z,14.29
2023-05-11T12:04:16.780Z,14.20
2023-05-11T12:09:19.126Z,14.63
2023-05-11T12:14:15.792Z,14.81
2023-05-11T12:19:12.244Z,14.80
2023-05-11T12:24:11.575Z,14.77
2023-05-11T12:29:13.189Z,14.37
2023-05-11T12:34:22.953Z,14.37
2023-05-11T12:39:25.444Z,14.46
2023-05-11T12:44:24.428Z,14.62
2023-05-11T12:49:26.410Z,14.37
2023-05-11T12:54:31.864Z,14.48
2023-05-11T12:59:30.251Z,14.57
2023-05-11T13:04:30.490Z,14.36
2023-05-11T13:09:27.862Z,14.55
2023-05-11T13:14:25.175Z,14.51
2023-05-11T13:19:29.373Z,14.39
2023-05-11T13:24:27.009Z,14.49
2023-05-11T13:29:23.426Z,14.64
2023-05-11T13:34:20.725Z,14.84
2023-05-11T13:39:17.272Z,14.72
2023-05-11T13:44:13.709Z,14.80
2023-05-11T13:49:10.169Z,15.10
2023-05-11T13:54:06.879Z,15.49
2023-05-11T13:59:03.559Z,14.82
2023-05-11T14:03:59.982Z,15.01
2023-05-11T14:08:56.467Z,15.34
2023-05-11T14:13:52.879Z,15.03
2023-05-11T14:18:50.621Z,14.93
2023-05-11T14:24:02.049Z,14.91
2023-05-11T14:28:58.804Z,14.77
2023-05-11T14:33:56.589Z,14.63
2023-05-11T14:38:53.237Z,14.69
2023-05-11T14:43:49.687Z,14.83
2023-05-11T14:48:46.071Z,14.99
2023-05-11T14:53:42.706Z,14.88
2023-05-11T14:58:39.190Z,14.71
2023-05-11T15:03:37.263Z,14.61
2023-05-11T15:08:33.818Z,14.83
2023-05-11T15:13:30.666Z,14.80
2023-05-11T15:18:27.125Z,14.77
2023-05-11T15:23:23.784Z,14.55
2023-05-11T15:28:20.816Z,14.56
2023-05-11T15:33:18.141Z,14.46
2023-05-11T15:38:14.592Z,14.49
2023-05-11T15:43:11.559Z,14.52
2023-05-11T15:48:08.025Z,14.45
2023-05-11T15:53:04.483Z,14.31
2023-05-11T15:58:00.875Z,14.13
2023-05-11T16:02:57.291Z,13.92
2023-05-11T16:07:53.725Z,13.88
2023-05-11T16:12:50.220Z,13.86
2023-05-11T16:17:47.403Z,13.97
2023-05-11T16:22:43.794Z,14.05
2023-05-11T16:27:40.221Z,13.84
2023-05-11T16:32:36.691Z,13.88
2023-05-11T16:37:33.121Z,13.91
2023-05-11T16:42:29.585Z,13.87
2023-05-11T16:47:26.118Z,13.71
2023-05-11T16:52:22.604Z,13.67
2023-05-11T16:57:19.072Z,13.54
2023-05-11T17:02:15.721Z,13.55
2023-05-11T17:07:14.868Z,13.47
2023-05-11T17:12:11.456Z,13.35
2023-05-11T17:17:08.462Z,13.24
2023-05-11T17:22:05.143Z,13.13
2023-05-11T17:27:01.561Z,13.18
2023-05-11T17:31:58.230Z,13.30
2023-05-11T17:36:54.773Z,13.20
2023-05-11T17:41:51.210Z,13.02
2023-05-11T17:46:47.847Z,13.00
2023-05-11T17:51:44.219Z,12.96
2023-05-11T17:56:41.197Z,12.87
2023-05-11T18:01:37.629Z,12.86
2023-05-11T18:06:34.648Z,12.82
2023-05-11T18:11:31.169Z,12.77
2023-05-11T18:16:27.717Z,12.69
2023-05-11T18:21:26.704Z,12.69
2023-05-11T18:26:26.034Z,12.76
2023-05-11T18:31:22.557Z,12.71
2023-05-11T18:36:19.004Z,12.72
2023-05-11T18:41:15.683Z,12.70
2023-05-11T18:46:12.178Z,12.75
2023-05-11T18:51:09.017Z,12.65
2023-05-11T18:56:05.496Z,12.72
2023-05-11T19:01:02.017Z,12.70
2023-05-11T19:06:00.615Z,12.69
2023-05-11T19:10:57.296Z,12.67
2023-05-11T19:15:53.803Z,12.62
2023-05-11T19:20:50.233Z,12.62
2023-05-11T19:25:46.673Z,12.60
2023-05-11T19:30:43.155Z,12.63
2023-05-11T19:35:40.576Z,12.64
2023-05-11T19:40:45.825Z,12.63
2023-05-11T19:45:46.357Z,12.63
2023-05-11T19:50:43.090Z,12.60
2023-05-11T19:55:40.354Z,12.62
2023-05-11T20:00:38.379Z,12.60
2023-05-11T20:05:35.143Z,12.59
2023-05-11T20:10:32.084Z,12.57
2023-05-11T20:15:28.479Z,12.60
2023-05-11T20:20:24.920Z,12.62
2023-05-11T20:25:21.724Z,12.65
2023-05-11T20:30:18.576Z,12.64
2023-05-11T20:35:15.101Z,12.63
2023-05-11T20:40:12.180Z,12.64
2023-05-11T20:45:09.057Z,12.65
2023-05-11T20:50:06.309Z,12.71
2023-05-11T20:55:03.334Z,12.76
2023-05-11T21:05:01.911Z,12.63
2023-05-11T21:09:58.547Z,12.66
2023-05-11T21:14:56.888Z,12.70
2023-05-11T21:19:53.588Z,12.67
2023-05-11T21:24:49.993Z,12.67
2023-05-11T21:29:46.343Z,12.67
2023-05-11T21:34:43.294Z,12.70
2023-05-11T21:39:39.645Z,12.64
2023-05-11T21:44:35.984Z,12.64
2023-05-11T21:49:33.154Z,12.57
2023-05-11T21:54:29.601Z,12.58
2023-05-11T21:59:27.001Z,12.59
2023-05-11T22:04:23.624Z,12.55
2023-05-11T22:09:20.397Z,12.47
2023-05-11T22:14:17.619Z,12.48
2023-05-11T22:19:13.964Z,12.44
2023-05-11T22:24:10.558Z,12.45
2023-05-11T22:29:06.976Z,12.42
2023-05-11T22:34:03.332Z,12.41
2023-05-11T22:38:59.734Z,12.32
2023-05-11T22:43:56.288Z,12.24
2023-05-11T22:48:52.743Z,12.19
2023-05-11T22:53:49.114Z,12.15
2023-05-11T22:58:45.828Z,12.16
2023-05-11T23:03:42.703Z,12.03
2023-05-11T23:08:39.343Z,11.99
2023-05-11T23:13:36.137Z,11.99
2023-05-11T23:18:32.898Z,12.00
2023-05-11T23:23:29.465Z,11.98
2023-05-11T23:28:26.024Z,11.97
2023-05-11T23:33:22.892Z,11.80
2023-05-11T23:38:19.268Z,11.79
2023-05-11T23:43:16.220Z,11.78
2023-05-11T23:48:12.660Z,11.82
2023-05-11T23:53:09.054Z,11.70
2023-05-11T23:58:05.413Z,11.66
